sensor_id;sensor_type;location;lat;lon;timestamp;temperature;humidity
15231;DHT22;32569;51.762;8.564;2022-10-16T00:02:14;14.10;99.90
15231;DHT22;32569;51.762;8.564;2022-10-16T00:04:41;14.10;99.90
15231;DHT22;32569;51.762;8.564;2022-10-16T00:07:07;14.10;99.90
15231;DHT22;32569;51.762;8.564;2022-10-16T00:09:35;14.00;99.90
15231;DHT22;32569;51.762;8.564;2022-10-16T00:12:02;14.00;99.90
15231;DHT22;32569;51.762;8.564;2022-10-16T00:14:32;14.00;99.90
15231;DHT22;32569;51.762;8.564;2022-10-16T00:16:58;13.90;99.90
15231;DHT22;32569;51.762;8.564;2022-10-16T00:19:25;13.90;99.90
15231;DHT22;32569;51.762;8.564;2022-10-16T00:21:52;13.90;99.90
15231;DHT22;32569;51.762;8.564;2022-10-16T00:24:19;13.90;99.90
15231;DHT22;32569;51.762;8.564;2022-10-16T00:26:49;13.90;99.90
15231;DHT22;32569;51.762;8.564;2022-10-16T00:29:17;13.90;99.90
15231;DHT22;32569;51.762;8.564;2022-10-16T00:31:44;13.90;99.90
15231;DHT22;32569;51.762;8.564;2022-10-16T00:34:11;13.90;99.90
15231;DHT22;32569;51.762;8.564;2022-10-16T00:36:37;13.90;99.90
15231;DHT22;32569;51.762;8.564;2022-10-16T00:39:04;13.90;99.90
15231;DHT22;32569;51.762;8.564;2022-10-16T00:41:32;13.90;99.90
15231;DHT22;32569;51.762;8.564;2022-10-16T00:44:02;13.80;99.90
15231;DHT22;32569;51.762;8.564;2022-10-16T00:46:31;13.80;99.90
15231;DHT22;32569;51.762;8.564;2022-10-16T00:49:04;13.80;99.90
15231;DHT22;32569;51.762;8.564;2022-10-16T00:51:34;13.80;99.90
15231;DHT22;32569;51.762;8.564;2022-10-16T00:54:03;13.70;99.90
15231;DHT22;32569;51.762;8.564;2022-10-16T00:56:31;13.70;99.90
15231;DHT22;32569;51.762;8.564;2022-10-16T00:59:02;13.60;99.90
15231;DHT22;32569;51.762;8.564;2022-10-16T01:01:30;13.70;99.90
15231;DHT22;32569;51.762;8.564;2022-10-16T01:03:57;13.60;99.90
15231;DHT22;32569;51.762;8.564;2022-10-16T01:06:25;13.60;99.90
15231;DHT22;32569;51.762;8.564;2022-10-16T01:09:06;13.70;99.90
15231;DHT22;32569;51.762;8.564;2022-10-16T01:11:41;13.60;99.90
15231;DHT22;32569;51.762;8.564;2022-10-16T01:14:19;13.50;99.90
15231;DHT22;32569;51.762;8.564;2022-10-16T01:16:50;13.50;99.90
15231;DHT22;32569;51.762;8.564;2022-10-16T01:19:26;13.50;99.90
15231;DHT22;32569;51.762;8.564;2022-10-16T01:21:56;13.40;99.90
15231;DHT22;32569;51.762;8.564;2022-10-16T01:24:31;13.30;99.90
15231;DHT22;32569;51.762;8.564;2022-10-16T01:27:09;13.30;99.90
15231;DHT22;32569;51.762;8.564;2022-10-16T01:29:41;13.30;99.90
15231;DHT22;32569;51.762;8.564;2022-10-16T01:32:15;13.30;99.90
15231;DHT22;32569;51.762;8.564;2022-10-16T01:34:48;13.30;99.90
15231;DHT22;32569;51.762;8.564;2022-10-16T01:37:23;13.40;99.90
15231;DHT22;32569;51.762;8.564;2022-10-16T01:39:53;13.30;99.90
15231;DHT22;32569;51.762;8.564;2022-10-16T01:42:27;13.40;99.90
15231;DHT22;32569;51.762;8.564;2022-10-16T01:44:57;13.40;99.90
15231;DHT22;32569;51.762;8.564;2022-10-16T01:47:27;13.30;99.90
15231;DHT22;32569;51.762;8.564;2022-10-16T01:49:54;13.20;99.90
15231;DHT22;32569;51.762;8.564;2022-10-16T01:52:26;13.00;99.90
15231;DHT22;32569;51.762;8.564;2022-10-16T01:54:55;12.80;99.90
15231;DHT22;32569;51.762;8.564;2022-10-16T01:57:24;12.70;99.90
15231;DHT22;32569;51.762;8.564;2022-10-16T01:59:54;12.60;99.90
15231;DHT22;32569;51.762;8.564;2022-10-16T02:02:22;12.60;99.90
15231;DHT22;32569;51.762;8.564;2022-10-16T02:04:57;12.50;99.90
15231;DHT22;32569;51.762;8.564;2022-10-16T02:07:24;12.60;99.90
15231;DHT22;32569;51.762;8.564;2022-10-16T02:09:51;12.50;99.90
15231;DHT22;32569;51.762;8.564;2022-10-16T02:12:22;12.40;99.90
15231;DHT22;32569;51.762;8.564;2022-10-16T02:14:51;12.30;99.90
15231;DHT22;32569;51.762;8.564;2022-10-16T02:17:19;12.30;99.90
15231;DHT22;32569;51.762;8.564;2022-10-16T02:19:48;12.30;99.90
15231;DHT22;32569;51.762;8.564;2022-10-16T02:22:20;12.30;99.90
15231;DHT22;32569;51.762;8.564;2022-10-16T02:24:53;12.20;99.90
15231;DHT22;32569;51.762;8.564;2022-10-16T02:27:24;12.20;99.90
15231;DHT22;32569;51.762;8.564;2022-10-16T02:29:56;12.20;99.90
15231;DHT22;32569;51.762;8.564;2022-10-16T02:32:30;12.20;99.90
15231;DHT22;32569;51.762;8.564;2022-10-16T02:34:59;12.30;99.90
15231;DHT22;32569;51.762;8.564;2022-10-16T02:37:27;12.50;99.90
15231;DHT22;32569;51.762;8.564;2022-10-16T02:39:55;12.70;99.90
15231;DHT22;32569;51.762;8.564;2022-10-16T02:42:28;12.70;99.90
15231;DHT22;32569;51.762;8.564;2022-10-16T02:44:56;12.70;99.90
15231;DHT22;32569;51.762;8.564;2022-10-16T02:47:22;12.80;99.90
15231;DHT22;32569;51.762;8.564;2022-10-16T02:49:49;12.80;99.90
15231;DHT22;32569;51.762;8.564;2022-10-16T02:52:16;12.80;99.90
15231;DHT22;32569;51.762;8.564;2022-10-16T02:54:42;12.70;99.90
15231;DHT22;32569;51.762;8.564;2022-10-16T02:57:09;12.80;99.90
15231;DHT22;32569;51.762;8.564;2022-10-16T02:59:36;12.80;99.90
15231;DHT22;32569;51.762;8.564;2022-10-16T03:02:04;12.70;99.90
15231;DHT22;32569;51.762;8.564;2022-10-16T03:04:31;12.70;99.90
15231;DHT22;32569;51.762;8.564;2022-10-16T03:06:57;12.80;99.90
15231;DHT22;32569;51.762;8.564;2022-10-16T03:09:24;12.80;99.90
15231;DHT22;32569;51.762;8.564;2022-10-16T03:11:51;12.70;99.90
15231;DHT22;32569;51.762;8.564;2022-10-16T03:14:17;12.70;99.90
15231;DHT22;32569;51.762;8.564;2022-10-16T03:16:44;12.70;99.90
15231;DHT22;32569;51.762;8.564;2022-10-16T03:19:12;12.80;99.90
15231;DHT22;32569;51.762;8.564;2022-10-16T03:21:39;12.80;99.90
15231;DHT22;32569;51.762;8.564;2022-10-16T03:24:06;12.80;99.90
15231;DHT22;32569;51.762;8.564;2022-10-16T03:26:32;12.80;99.90
15231;DHT22;32569;51.762;8.564;2022-10-16T03:28:59;12.80;99.90
15231;DHT22;32569;51.762;8.564;2022-10-16T03:31:27;12.70;99.90
15231;DHT22;32569;51.762;8.564;2022-10-16T03:33:54;12.70;99.90
15231;DHT22;32569;51.762;8.564;2022-10-16T03:36:23;12.80;99.90
15231;DHT22;32569;51.762;8.564;2022-10-16T03:38:49;12.80;99.90
15231;DHT22;32569;51.762;8.564;2022-10-16T03:41:16;12.80;99.90
15231;DHT22;32569;51.762;8.564;2022-10-16T03:43:43;12.80;99.90
15231;DHT22;32569;51.762;8.564;2022-10-16T03:46:10;12.80;99.90
15231;DHT22;32569;51.762;8.564;2022-10-16T03:48:37;12.90;99.90
15231;DHT22;32569;51.762;8.564;2022-10-16T03:51:05;12.80;99.90
15231;DHT22;32569;51.762;8.564;2022-10-16T03:53:33;12.80;99.90
15231;DHT22;32569;51.762;8.564;2022-10-16T03:56:00;12.90;99.90
15231;DHT22;32569;51.762;8.564;2022-10-16T03:58:26;12.90;99.90
15231;DHT22;32569;51.762;8.564;2022-10-16T04:00:53;12.90;99.90
15231;DHT22;32569;51.762;8.564;2022-10-16T04:03:20;12.90;99.90
15231;DHT22;32569;51.762;8.564;2022-10-16T04:05:48;12.90;99.90
15231;DHT22;32569;51.762;8.564;2022-10-16T04:08:15;12.90;99.90
15231;DHT22;32569;51.762;8.564;2022-10-16T04:10:43;12.90;99.90
15231;DHT22;32569;51.762;8.564;2022-10-16T04:13:10;12.90;99.90
15231;DHT22;32569;51.762;8.564;2022-10-16T04:15:37;12.90;99.90
15231;DHT22;32569;51.762;8.564;2022-10-16T04:18:04;12.90;99.90
15231;DHT22;32569;51.762;8.564;2022-10-16T04:20:31;12.90;99.90
15231;DHT22;32569;51.762;8.564;2022-10-16T04:22:58;12.90;99.90
15231;DHT22;32569;51.762;8.564;2022-10-16T04:25:25;12.90;99.90
15231;DHT22;32569;51.762;8.564;2022-10-16T04:27:54;12.90;99.90
15231;DHT22;32569;51.762;8.564;2022-10-16T04:30:21;12.90;99.90
15231;DHT22;32569;51.762;8.564;2022-10-16T04:32:48;12.90;99.90
15231;DHT22;32569;51.762;8.564;2022-10-16T04:35:15;13.00;99.90
15231;DHT22;32569;51.762;8.564;2022-10-16T04:37:42;13.00;99.90
15231;DHT22;32569;51.762;8.564;2022-10-16T04:40:09;12.90;99.90
15231;DHT22;32569;51.762;8.564;2022-10-16T04:42:36;12.90;99.90
15231;DHT22;32569;51.762;8.564;2022-10-16T04:45:06;12.90;99.90
15231;DHT22;32569;51.762;8.564;2022-10-16T04:47:32;12.90;99.90
15231;DHT22;32569;51.762;8.564;2022-10-16T04:49:59;12.90;99.90
15231;DHT22;32569;51.762;8.564;2022-10-16T04:52:26;13.00;99.90
15231;DHT22;32569;51.762;8.564;2022-10-16T04:54:53;12.90;99.90
15231;DHT22;32569;51.762;8.564;2022-10-16T04:57:21;13.00;99.90
15231;DHT22;32569;51.762;8.564;2022-10-16T04:59:48;12.90;99.90
15231;DHT22;32569;51.762;8.564;2022-10-16T05:02:16;12.90;99.90
15231;DHT22;32569;51.762;8.564;2022-10-16T05:04:43;12.90;99.90
15231;DHT22;32569;51.762;8.564;2022-10-16T05:07:10;12.90;99.90
15231;DHT22;32569;51.762;8.564;2022-10-16T05:09:37;12.80;99.90
15231;DHT22;32569;51.762;8.564;2022-10-16T05:12:03;12.70;99.90
15231;DHT22;32569;51.762;8.564;2022-10-16T05:14:30;12.70;99.90
15231;DHT22;32569;51.762;8.564;2022-10-16T05:16:57;12.70;99.90
15231;DHT22;32569;51.762;8.564;2022-10-16T05:19:25;12.60;99.90
15231;DHT22;32569;51.762;8.564;2022-10-16T05:21:52;12.70;99.90
15231;DHT22;32569;51.762;8.564;2022-10-16T05:24:19;12.70;99.90
15231;DHT22;32569;51.762;8.564;2022-10-16T05:26:45;12.80;99.90
15231;DHT22;32569;51.762;8.564;2022-10-16T05:29:12;12.80;99.90
15231;DHT22;32569;51.762;8.564;2022-10-16T05:31:39;12.80;99.90
15231;DHT22;32569;51.762;8.564;2022-10-16T05:34:05;12.90;99.90
15231;DHT22;32569;51.762;8.564;2022-10-16T05:36:34;13.00;99.90
15231;DHT22;32569;51.762;8.564;2022-10-16T05:39:00;13.00;99.90
15231;DHT22;32569;51.762;8.564;2022-10-16T05:41:27;12.90;99.90
15231;DHT22;32569;51.762;8.564;2022-10-16T05:43:54;12.90;99.90
15231;DHT22;32569;51.762;8.564;2022-10-16T05:46:21;12.90;99.90
15231;DHT22;32569;51.762;8.564;2022-10-16T05:48:47;12.90;99.90
15231;DHT22;32569;51.762;8.564;2022-10-16T05:51:14;12.80;99.90
15231;DHT22;32569;51.762;8.564;2022-10-16T05:53:43;12.60;99.90
15231;DHT22;32569;51.762;8.564;2022-10-16T05:56:10;12.60;99.90
15231;DHT22;32569;51.762;8.564;2022-10-16T05:58:38;12.70;99.90
15231;DHT22;32569;51.762;8.564;2022-10-16T06:01:07;12.70;99.90
15231;DHT22;32569;51.762;8.564;2022-10-16T06:03:36;12.70;99.90
15231;DHT22;32569;51.762;8.564;2022-10-16T06:06:07;12.80;99.90
15231;DHT22;32569;51.762;8.564;2022-10-16T06:08:35;12.80;99.90
15231;DHT22;32569;51.762;8.564;2022-10-16T06:11:04;12.90;99.90
15231;DHT22;32569;51.762;8.564;2022-10-16T06:13:31;12.90;99.90
15231;DHT22;32569;51.762;8.564;2022-10-16T06:15:59;13.00;99.90
15231;DHT22;32569;51.762;8.564;2022-10-16T06:18:27;13.00;99.90
15231;DHT22;32569;51.762;8.564;2022-10-16T06:20:54;13.00;99.90
15231;DHT22;32569;51.762;8.564;2022-10-16T06:23:21;13.00;99.90
15231;DHT22;32569;51.762;8.564;2022-10-16T06:25:48;13.00;99.90
15231;DHT22;32569;51.762;8.564;2022-10-16T06:28:16;13.10;99.90
15231;DHT22;32569;51.762;8.564;2022-10-16T06:30:43;13.20;99.90
15231;DHT22;32569;51.762;8.564;2022-10-16T06:33:11;13.20;99.90
15231;DHT22;32569;51.762;8.564;2022-10-16T06:35:38;13.20;99.90
15231;DHT22;32569;51.762;8.564;2022-10-16T06:38:04;13.10;99.90
15231;DHT22;32569;51.762;8.564;2022-10-16T06:40:31;13.20;99.90
15231;DHT22;32569;51.762;8.564;2022-10-16T06:42:58;13.30;99.90
15231;DHT22;32569;51.762;8.564;2022-10-16T06:45:26;13.30;99.90
15231;DHT22;32569;51.762;8.564;2022-10-16T06:47:53;13.40;99.90
15231;DHT22;32569;51.762;8.564;2022-10-16T06:50:19;13.50;99.90
15231;DHT22;32569;51.762;8.564;2022-10-16T06:52:46;13.50;99.90
15231;DHT22;32569;51.762;8.564;2022-10-16T06:55:13;13.60;99.90
15231;DHT22;32569;51.762;8.564;2022-10-16T06:57:42;13.60;99.90
15231;DHT22;32569;51.762;8.564;2022-10-16T07:00:10;13.60;99.90
15231;DHT22;32569;51.762;8.564;2022-10-16T07:02:38;13.60;99.90
15231;DHT22;32569;51.762;8.564;2022-10-16T07:05:05;13.70;99.90
15231;DHT22;32569;51.762;8.564;2022-10-16T07:07:32;13.70;99.90
15231;DHT22;32569;51.762;8.564;2022-10-16T07:09:59;13.80;99.90
15231;DHT22;32569;51.762;8.564;2022-10-16T07:12:25;13.80;99.90
15231;DHT22;32569;51.762;8.564;2022-10-16T07:14:52;13.90;99.90
15231;DHT22;32569;51.762;8.564;2022-10-16T07:17:20;14.00;99.90
15231;DHT22;32569;51.762;8.564;2022-10-16T07:19:49;14.00;99.90
15231;DHT22;32569;51.762;8.564;2022-10-16T07:22:18;14.10;99.90
15231;DHT22;32569;51.762;8.564;2022-10-16T07:24:45;14.20;99.90
15231;DHT22;32569;51.762;8.564;2022-10-16T07:27:12;14.30;99.90
15231;DHT22;32569;51.762;8.564;2022-10-16T07:29:38;14.40;99.90
15231;DHT22;32569;51.762;8.564;2022-10-16T07:32:05;14.40;99.90
15231;DHT22;32569;51.762;8.564;2022-10-16T07:34:32;14.50;99.90
15231;DHT22;32569;51.762;8.564;2022-10-16T07:37:00;14.60;99.90
15231;DHT22;32569;51.762;8.564;2022-10-16T07:39:27;14.70;99.90
15231;DHT22;32569;51.762;8.564;2022-10-16T07:41:54;14.80;99.90
15231;DHT22;32569;51.762;8.564;2022-10-16T07:44:21;14.90;99.90
15231;DHT22;32569;51.762;8.564;2022-10-16T07:46:48;15.00;99.90
15231;DHT22;32569;51.762;8.564;2022-10-16T07:49:15;15.10;99.90
15231;DHT22;32569;51.762;8.564;2022-10-16T07:51:41;15.20;99.90
15231;DHT22;32569;51.762;8.564;2022-10-16T07:54:10;15.20;99.90
15231;DHT22;32569;51.762;8.564;2022-10-16T07:56:36;15.40;99.90
15231;DHT22;32569;51.762;8.564;2022-10-16T07:59:03;15.50;99.90
15231;DHT22;32569;51.762;8.564;2022-10-16T08:01:30;15.50;99.90
15231;DHT22;32569;51.762;8.564;2022-10-16T08:03:57;15.50;99.90
15231;DHT22;32569;51.762;8.564;2022-10-16T08:06:24;15.50;99.90
15231;DHT22;32569;51.762;8.564;2022-10-16T08:08:51;15.50;99.90
15231;DHT22;32569;51.762;8.564;2022-10-16T08:11:20;15.50;99.90
15231;DHT22;32569;51.762;8.564;2022-10-16T08:13:46;15.50;99.90
15231;DHT22;32569;51.762;8.564;2022-10-16T08:16:14;15.40;99.90
15231;DHT22;32569;51.762;8.564;2022-10-16T08:18:42;15.40;99.90
15231;DHT22;32569;51.762;8.564;2022-10-16T08:21:13;15.30;99.90
15231;DHT22;32569;51.762;8.564;2022-10-16T08:23:40;15.30;99.90
15231;DHT22;32569;51.762;8.564;2022-10-16T08:26:08;15.30;99.90
15231;DHT22;32569;51.762;8.564;2022-10-16T08:28:37;15.20;99.90
15231;DHT22;32569;51.762;8.564;2022-10-16T08:31:08;15.20;99.90
15231;DHT22;32569;51.762;8.564;2022-10-16T08:33:35;15.20;99.90
15231;DHT22;32569;51.762;8.564;2022-10-16T08:36:03;15.30;99.90
15231;DHT22;32569;51.762;8.564;2022-10-16T08:38:30;15.30;99.90
15231;DHT22;32569;51.762;8.564;2022-10-16T08:41:10;15.30;99.90
15231;DHT22;32569;51.762;8.564;2022-10-16T08:44:00;15.30;99.90
15231;DHT22;32569;51.762;8.564;2022-10-16T08:46:41;15.40;99.90
15231;DHT22;32569;51.762;8.564;2022-10-16T08:49:12;15.40;99.90
15231;DHT22;32569;51.762;8.564;2022-10-16T08:51:40;15.50;99.90
15231;DHT22;32569;51.762;8.564;2022-10-16T08:54:21;15.50;99.90
15231;DHT22;32569;51.762;8.564;2022-10-16T08:56:49;15.60;99.90
15231;DHT22;32569;51.762;8.564;2022-10-16T08:59:18;15.60;99.90
15231;DHT22;32569;51.762;8.564;2022-10-16T09:01:47;15.80;99.90
15231;DHT22;32569;51.762;8.564;2022-10-16T09:07:24;16.00;99.90
15231;DHT22;32569;51.762;8.564;2022-10-16T09:10:05;16.00;99.90
15231;DHT22;32569;51.762;8.564;2022-10-16T09:12:38;16.00;99.90
15231;DHT22;32569;51.762;8.564;2022-10-16T09:15:17;16.10;99.90
15231;DHT22;32569;51.762;8.564;2022-10-16T09:17:53;16.10;99.90
15231;DHT22;32569;51.762;8.564;2022-10-16T09:20:30;16.10;99.90
15231;DHT22;32569;51.762;8.564;2022-10-16T09:23:13;16.10;99.90
15231;DHT22;32569;51.762;8.564;2022-10-16T09:25:42;16.10;99.90
15231;DHT22;32569;51.762;8.564;2022-10-16T09:28:09;16.20;99.90
15231;DHT22;32569;51.762;8.564;2022-10-16T09:30:38;16.20;99.90
15231;DHT22;32569;51.762;8.564;2022-10-16T09:33:05;16.30;99.90
15231;DHT22;32569;51.762;8.564;2022-10-16T09:35:36;16.40;99.90
15231;DHT22;32569;51.762;8.564;2022-10-16T09:38:03;16.40;99.90
15231;DHT22;32569;51.762;8.564;2022-10-16T09:40:31;16.50;99.90
15231;DHT22;32569;51.762;8.564;2022-10-16T09:43:03;16.50;99.90
15231;DHT22;32569;51.762;8.564;2022-10-16T09:45:32;16.50;99.90
15231;DHT22;32569;51.762;8.564;2022-10-16T09:48:10;16.50;99.90
15231;DHT22;32569;51.762;8.564;2022-10-16T09:50:37;16.60;99.90
15231;DHT22;32569;51.762;8.564;2022-10-16T09:53:06;16.70;99.90
15231;DHT22;32569;51.762;8.564;2022-10-16T09:55:35;16.80;99.90
15231;DHT22;32569;51.762;8.564;2022-10-16T09:58:01;16.70;99.90
15231;DHT22;32569;51.762;8.564;2022-10-16T10:00:28;16.70;99.90
15231;DHT22;32569;51.762;8.564;2022-10-16T10:02:55;16.70;99.90
15231;DHT22;32569;51.762;8.564;2022-10-16T10:05:25;16.70;99.90
15231;DHT22;32569;51.762;8.564;2022-10-16T10:07:55;16.70;99.90
15231;DHT22;32569;51.762;8.564;2022-10-16T10:10:25;16.60;99.90
15231;DHT22;32569;51.762;8.564;2022-10-16T10:12:53;16.60;99.90
15231;DHT22;32569;51.762;8.564;2022-10-16T10:15:20;16.70;99.90
15231;DHT22;32569;51.762;8.564;2022-10-16T10:17:50;16.80;99.90
15231;DHT22;32569;51.762;8.564;2022-10-16T10:20:27;16.80;99.90
15231;DHT22;32569;51.762;8.564;2022-10-16T10:22:54;16.80;99.90
15231;DHT22;32569;51.762;8.564;2022-10-16T10:25:46;16.90;99.90
15231;DHT22;32569;51.762;8.564;2022-10-16T10:28:24;16.90;99.90
15231;DHT22;32569;51.762;8.564;2022-10-16T10:31:02;17.00;99.90
15231;DHT22;32569;51.762;8.564;2022-10-16T10:33:37;17.00;99.90
15231;DHT22;32569;51.762;8.564;2022-10-16T10:36:28;17.00;99.90
15231;DHT22;32569;51.762;8.564;2022-10-16T10:38:58;17.10;99.90
15231;DHT22;32569;51.762;8.564;2022-10-16T10:41:52;17.20;99.90
15231;DHT22;32569;51.762;8.564;2022-10-16T10:44:30;17.20;99.90
15231;DHT22;32569;51.762;8.564;2022-10-16T10:47:10;17.20;99.90
15231;DHT22;32569;51.762;8.564;2022-10-16T10:49:48;17.20;99.90
15231;DHT22;32569;51.762;8.564;2022-10-16T10:52:38;17.20;99.90
15231;DHT22;32569;51.762;8.564;2022-10-16T10:55:18;17.20;99.90
15231;DHT22;32569;51.762;8.564;2022-10-16T10:57:56;17.20;99.90
15231;DHT22;32569;51.762;8.564;2022-10-16T11:00:30;17.30;99.90
15231;DHT22;32569;51.762;8.564;2022-10-16T11:03:06;17.30;99.90
15231;DHT22;32569;51.762;8.564;2022-10-16T11:05:41;17.30;99.90
15231;DHT22;32569;51.762;8.564;2022-10-16T11:08:15;17.40;99.90
15231;DHT22;32569;51.762;8.564;2022-10-16T11:10:48;17.40;99.90
15231;DHT22;32569;51.762;8.564;2022-10-16T11:13:24;17.40;99.90
15231;DHT22;32569;51.762;8.564;2022-10-16T11:15:58;17.50;99.90
15231;DHT22;32569;51.762;8.564;2022-10-16T11:18:32;17.50;99.90
15231;DHT22;32569;51.762;8.564;2022-10-16T11:21:04;17.60;99.90
15231;DHT22;32569;51.762;8.564;2022-10-16T11:23:39;17.70;99.90
15231;DHT22;32569;51.762;8.564;2022-10-16T11:26:12;17.70;99.90
15231;DHT22;32569;51.762;8.564;2022-10-16T11:28:44;17.70;99.90
15231;DHT22;32569;51.762;8.564;2022-10-16T11:31:16;17.70;99.90
15231;DHT22;32569;51.762;8.564;2022-10-16T11:33:51;17.50;99.90
15231;DHT22;32569;51.762;8.564;2022-10-16T11:36:25;17.50;99.90
15231;DHT22;32569;51.762;8.564;2022-10-16T11:39:00;17.60;99.90
15231;DHT22;32569;51.762;8.564;2022-10-16T11:41:33;17.50;99.90
15231;DHT22;32569;51.762;8.564;2022-10-16T11:44:15;17.50;99.90
15231;DHT22;32569;51.762;8.564;2022-10-16T11:46:50;17.60;99.90
15231;DHT22;32569;51.762;8.564;2022-10-16T11:49:20;17.70;99.90
15231;DHT22;32569;51.762;8.564;2022-10-16T11:51:54;17.90;99.90
15231;DHT22;32569;51.762;8.564;2022-10-16T11:54:28;18.00;99.90
15231;DHT22;32569;51.762;8.564;2022-10-16T11:57:01;18.10;99.90
15231;DHT22;32569;51.762;8.564;2022-10-16T11:59:33;18.10;99.90
15231;DHT22;32569;51.762;8.564;2022-10-16T12:02:25;18.10;99.90
15231;DHT22;32569;51.762;8.564;2022-10-16T12:05:02;18.10;99.90
15231;DHT22;32569;51.762;8.564;2022-10-16T12:07:36;18.20;99.90
15231;DHT22;32569;51.762;8.564;2022-10-16T12:10:19;18.30;99.90
15231;DHT22;32569;51.762;8.564;2022-10-16T12:12:47;18.30;99.90
15231;DHT22;32569;51.762;8.564;2022-10-16T12:15:23;18.30;99.90
15231;DHT22;32569;51.762;8.564;2022-10-16T12:17:52;18.30;99.90
15231;DHT22;32569;51.762;8.564;2022-10-16T12:20:28;18.30;99.90
15231;DHT22;32569;51.762;8.564;2022-10-16T12:22:59;18.30;99.80
15231;DHT22;32569;51.762;8.564;2022-10-16T12:25:29;18.30;99.60
15231;DHT22;32569;51.762;8.564;2022-10-16T12:28:01;18.30;99.60
15231;DHT22;32569;51.762;8.564;2022-10-16T12:30:31;18.40;99.30
15231;DHT22;32569;51.762;8.564;2022-10-16T12:33:00;18.40;99.80
15231;DHT22;32569;51.762;8.564;2022-10-16T12:35:30;18.50;99.50
15231;DHT22;32569;51.762;8.564;2022-10-16T12:38:15;18.40;99.40
15231;DHT22;32569;51.762;8.564;2022-10-16T12:40:44;18.40;99.40
15231;DHT22;32569;51.762;8.564;2022-10-16T12:43:25;18.40;99.50
15231;DHT22;32569;51.762;8.564;2022-10-16T12:46:26;18.40;99.90
15231;DHT22;32569;51.762;8.564;2022-10-16T12:49:20;18.30;99.90
15231;DHT22;32569;51.762;8.564;2022-10-16T12:51:49;18.20;99.90
15231;DHT22;32569;51.762;8.564;2022-10-16T12:54:19;18.30;99.90
15231;DHT22;32569;51.762;8.564;2022-10-16T12:57:04;18.30;99.90
15231;DHT22;32569;51.762;8.564;2022-10-16T12:59:41;18.30;99.90
15231;DHT22;32569;51.762;8.564;2022-10-16T13:02:41;18.40;99.90
15231;DHT22;32569;51.762;8.564;2022-10-16T13:05:33;18.40;99.90
15231;DHT22;32569;51.762;8.564;2022-10-16T13:08:29;18.40;99.70
15231;DHT22;32569;51.762;8.564;2022-10-16T13:11:05;18.30;99.40
15231;DHT22;32569;51.762;8.564;2022-10-16T13:14:05;18.40;99.40
15231;DHT22;32569;51.762;8.564;2022-10-16T13:16:42;18.40;99.40
15231;DHT22;32569;51.762;8.564;2022-10-16T13:19:20;18.40;99.70
15231;DHT22;32569;51.762;8.564;2022-10-16T13:21:54;18.40;99.80
15231;DHT22;32569;51.762;8.564;2022-10-16T13:24:31;18.30;99.80
15231;DHT22;32569;51.762;8.564;2022-10-16T13:27:09;18.30;99.90
15231;DHT22;32569;51.762;8.564;2022-10-16T13:29:41;18.40;99.90
15231;DHT22;32569;51.762;8.564;2022-10-16T13:32:10;18.40;99.80
15231;DHT22;32569;51.762;8.564;2022-10-16T13:34:44;18.40;99.90
15231;DHT22;32569;51.762;8.564;2022-10-16T13:37:18;18.30;99.90
15231;DHT22;32569;51.762;8.564;2022-10-16T13:39:45;18.20;99.90
15231;DHT22;32569;51.762;8.564;2022-10-16T13:42:14;18.20;99.90
15231;DHT22;32569;51.762;8.564;2022-10-16T13:44:46;18.20;99.90
15231;DHT22;32569;51.762;8.564;2022-10-16T13:47:18;18.10;99.90
15231;DHT22;32569;51.762;8.564;2022-10-16T13:49:46;18.10;99.90
15231;DHT22;32569;51.762;8.564;2022-10-16T13:52:18;18.10;99.90
15231;DHT22;32569;51.762;8.564;2022-10-16T13:54:45;18.00;99.90
15231;DHT22;32569;51.762;8.564;2022-10-16T13:57:14;18.10;99.90
15231;DHT22;32569;51.762;8.564;2022-10-16T13:59:42;18.10;99.90
15231;DHT22;32569;51.762;8.564;2022-10-16T14:02:18;18.20;99.90
15231;DHT22;32569;51.762;8.564;2022-10-16T14:04:46;18.20;99.90
15231;DHT22;32569;51.762;8.564;2022-10-16T14:07:17;18.20;99.90
15231;DHT22;32569;51.762;8.564;2022-10-16T14:09:48;18.20;99.90
15231;DHT22;32569;51.762;8.564;2022-10-16T14:12:16;18.20;99.90
15231;DHT22;32569;51.762;8.564;2022-10-16T14:14:46;18.20;99.90
15231;DHT22;32569;51.762;8.564;2022-10-16T14:17:14;18.20;99.90
15231;DHT22;32569;51.762;8.564;2022-10-16T14:19:46;18.20;99.90
15231;DHT22;32569;51.762;8.564;2022-10-16T14:22:26;18.30;99.90
15231;DHT22;32569;51.762;8.564;2022-10-16T14:24:53;18.40;99.50
15231;DHT22;32569;51.762;8.564;2022-10-16T14:27:29;18.40;99.20
15231;DHT22;32569;51.762;8.564;2022-10-16T14:30:14;18.40;99.40
15231;DHT22;32569;51.762;8.564;2022-10-16T14:32:42;18.30;99.70
15231;DHT22;32569;51.762;8.564;2022-10-16T14:35:24;18.20;99.40
15231;DHT22;32569;51.762;8.564;2022-10-16T14:37:52;18.20;99.90
15231;DHT22;32569;51.762;8.564;2022-10-16T14:40:21;18.10;99.90
15231;DHT22;32569;51.762;8.564;2022-10-16T14:42:50;18.00;99.90
15231;DHT22;32569;51.762;8.564;2022-10-16T14:45:20;17.90;99.90
15231;DHT22;32569;51.762;8.564;2022-10-16T14:47:50;17.80;99.90
15231;DHT22;32569;51.762;8.564;2022-10-16T14:50:18;17.80;99.90
15231;DHT22;32569;51.762;8.564;2022-10-16T14:52:45;17.70;99.90
15231;DHT22;32569;51.762;8.564;2022-10-16T14:55:12;17.60;99.90
15231;DHT22;32569;51.762;8.564;2022-10-16T14:57:39;17.60;99.90
15231;DHT22;32569;51.762;8.564;2022-10-16T15:00:14;17.70;99.90
15231;DHT22;32569;51.762;8.564;2022-10-16T15:02:43;17.70;99.90
15231;DHT22;32569;51.762;8.564;2022-10-16T15:05:14;17.70;99.90
15231;DHT22;32569;51.762;8.564;2022-10-16T15:07:41;17.70;99.90
15231;DHT22;32569;51.762;8.564;2022-10-16T15:10:09;17.60;99.90
15231;DHT22;32569;51.762;8.564;2022-10-16T15:12:36;17.50;99.90
15231;DHT22;32569;51.762;8.564;2022-10-16T15:15:25;17.40;99.90
15231;DHT22;32569;51.762;8.564;2022-10-16T15:17:55;17.50;99.90
15231;DHT22;32569;51.762;8.564;2022-10-16T15:20:23;17.40;99.90
15231;DHT22;32569;51.762;8.564;2022-10-16T15:22:50;17.40;99.90
15231;DHT22;32569;51.762;8.564;2022-10-16T15:25:30;17.50;99.90
15231;DHT22;32569;51.762;8.564;2022-10-16T15:27:58;17.50;99.90
15231;DHT22;32569;51.762;8.564;2022-10-16T15:30:34;17.40;99.90
15231;DHT22;32569;51.762;8.564;2022-10-16T15:33:02;17.40;99.90
15231;DHT22;32569;51.762;8.564;2022-10-16T15:35:30;17.30;99.90
15231;DHT22;32569;51.762;8.564;2022-10-16T15:37:58;17.20;99.90
15231;DHT22;32569;51.762;8.564;2022-10-16T15:40:25;17.10;99.90
15231;DHT22;32569;51.762;8.564;2022-10-16T15:42:51;17.00;99.90
15231;DHT22;32569;51.762;8.564;2022-10-16T15:45:18;17.00;99.90
15231;DHT22;32569;51.762;8.564;2022-10-16T15:47:46;17.00;99.90
15231;DHT22;32569;51.762;8.564;2022-10-16T15:50:15;16.90;99.90
15231;DHT22;32569;51.762;8.564;2022-10-16T15:52:42;16.90;99.90
15231;DHT22;32569;51.762;8.564;2022-10-16T15:55:11;17.00;99.90